KCKB/CKB METAR and TAF weather

Enter ICAO airport designator
Station Type Date Time Source
KCKB METAR 2020/01/23 08:53 UTC NOAA

KCKB 230853Z AUTO 00000KT 10SM CLR M04/M08 A3025 RMK AO2 SLP249 T10441083 58006


Station Type Date Time Source
KCKB Decoded METAR 2020/01/23 08:53 UTC NOAA

HARRISON/MARION REGIONAL, WV, United States (KCKB) 39-18N 080-13W 360M
Jan 23, 2020 - 03:53 AM EST / 2020.01.23 0853 UTC
Wind: Calm:0
Visibility: 10 mile(s):0
Sky conditions: clear
Temperature: 24.1 F (-4.4 C)
Dew Point: 17.1 F (-8.3 C)
Relative Humidity: 74%
Pressure (altimeter): 30.25 in. Hg (1024 hPa)
Pressure tendency: 0.02 inches (0.6 hPa) lower than three hours ago
ob: KCKB 230853Z AUTO 00000KT 10SM CLR M04/M08 A3025 RMK AO2 SLP249 T10441083 58006
cycle: 9

Station Type Date Time Source
KCKB TAF 2020/01/23 09:12 UTC NOAA

TAF
AMD KCKB 230911Z 2309/2406 00000KT P6SM BKN250
FM231500 VRB03KT P6SM BKN250

Example: see airport list